»·PEaware :: N8351P KBFL-KMHV

N8351P :: KBFL-KMHV

FLIGHT INFORMATION

Flight Status: Arrived
Operator: Privately registered:
United States
More flights under this callsign
Pilot: James O. (45484)
Aircraft: PIPER PA-24 COMMANCHE
(PA24)
More flights by this aircraft type
Origin: KBFL Meadows
United States
Destination: KMHV Mojave
United States
More flights between these airports :: More routes between these airports
Route:
File this flight plan on PilotEdge
Remarks:
Altitude:
(Current/Filed)
7,500ft
Speed:
(Current/Filed)
160kts
Departed: 02-Nov-23 09:52 AM
Arrived: 02-Nov-23 10:20 AM
Distance/Time
Traveled:
50nm/0:28
Distance/Time
To Go:
Arrived

Flight Plot

Page will automatically refresh every two minutes.


Map Options




Map Legend


Flown Route
Filed Route
Departure Airport
Arrival Airport
Navaid (VOR, NDB)
Fix

Horizontal Profiles

Position Reports

Time Latitude Longitude Heading Altitude Ground
Speed
02-Nov-23 09:37 35.425372 -119.042975 44 471ft 0kts
02-Nov-23 09:38 35.425372 -119.042975 44 471ft 0kts
02-Nov-23 09:39 35.425372 -119.042975 44 471ft 0kts
02-Nov-23 09:40 35.425372 -119.042975 44 471ft 0kts
02-Nov-23 09:41 35.425372 -119.042975 44 471ft 0kts
02-Nov-23 09:42 35.425372 -119.042975 44 471ft 0kts
02-Nov-23 09:43 35.425372 -119.042975 44 471ft 0kts
02-Nov-23 09:44 35.425372 -119.042975 44 471ft 0kts
02-Nov-23 09:45 35.425372 -119.042975 44 471ft 0kts
02-Nov-23 09:46 35.425372 -119.042975 44 471ft 0kts
02-Nov-23 09:47 35.425372 -119.042975 44 471ft 0kts
02-Nov-23 09:48 35.425452 -119.044270 251 471ft 7kts
02-Nov-23 09:49 35.425413 -119.044438 253 471ft 0kts
02-Nov-23 09:50 35.425394 -119.044540 258 471ft 6kts
02-Nov-23 09:51 35.434759 -119.057282 316 723ft 102kts
02-Nov-23 09:52 35.455668 -119.061652 69 1956ft 87kts
02-Nov-23 09:53 35.441599 -119.037456 141 2793ft 106kts
02-Nov-23 09:54 35.420820 -119.012795 134 3689ft 105kts
02-Nov-23 09:55 35.404570 -118.983687 117 4478ft 106kts
02-Nov-23 09:56 35.391661 -118.951146 117 5292ft 107kts
02-Nov-23 09:57 35.378173 -118.918304 117 6101ft 109kts
02-Nov-23 09:58 35.364382 -118.884918 118 6853ft 110kts
02-Nov-23 09:59 35.350338 -118.851108 117 7462ft 118kts
02-Nov-23 10:00 35.332878 -118.809904 118 7469ft 151kts
02-Nov-23 10:01 35.313681 -118.763638 117 7503ft 154kts
02-Nov-23 10:02 35.293889 -118.716888 117 7526ft 155kts
02-Nov-23 10:03 35.273624 -118.669972 118 7539ft 156kts
02-Nov-23 10:04 35.253635 -118.622715 117 7554ft 155kts
02-Nov-23 10:05 35.232691 -118.576548 123 7570ft 155kts
02-Nov-23 10:06 35.206045 -118.534798 130 7585ft 155kts
02-Nov-23 10:07 35.177174 -118.496682 133 7285ft 151kts
02-Nov-23 10:08 35.149892 -118.458357 123 6878ft 149kts
02-Nov-23 10:09 35.131762 -118.412971 110 6380ft 148kts
02-Nov-23 10:10 35.117823 -118.366022 111 5876ft 147kts
02-Nov-23 10:11 35.103721 -118.319406 111 5745ft 146kts
02-Nov-23 10:12 35.094295 -118.271553 85 5612ft 149kts
02-Nov-23 10:13 35.095197 -118.223093 107 5388ft 148kts
02-Nov-23 10:14 35.081565 -118.178871 94 4294ft 119kts
02-Nov-23 10:15 35.080309 -118.146073 87 3733ft 88kts
02-Nov-23 10:16 35.078068 -118.116577 139 3415ft 88kts
02-Nov-23 10:17 35.059158 -118.124216 264 3044ft 81kts
02-Nov-23 10:18 35.059203 -118.149587 270 2752ft 51kts
02-Nov-23 10:19 35.058945 -118.157523 218 2764ft 11kts
02-Nov-23 10:20 35.058394 -118.157729 185 2766ft 0kts
02-Nov-23 10:21 35.058394 -118.157729 185 2766ft 0kts
02-Nov-23 10:22 35.058103 -118.157748 176 2767ft 9kts
02-Nov-23 10:23 35.056993 -118.155331 82 2763ft 0kts
02-Nov-23 10:24 35.056993 -118.155331 82 2763ft 0kts
02-Nov-23 10:25 35.056993 -118.155331 82 2763ft 0kts
02-Nov-23 10:26 35.056993 -118.155331 82 2763ft 0kts
02-Nov-23 10:27 35.056993 -118.155331 82 2763ft 0kts

Navigation Log

Ident Type
Flight plan parsing failed, navigation log unavailable